Time;durP1;ratioP1;P1;durP2;ratioP2;P2;SDS_P1;SDS_P2;PMS_P1;PMS_P2;Temp;Humidity;BMP_temperature;BMP_pressure;BME280_temperature;BME280_humidity;BME280_pressure;Samples;Min_cycle;Max_cycle;Signal;HPM_P1;HPM_P2
2022/11/26 00:00:51;;;;;;;1.10;0.85;;;;;;;;;;5063008;28;20078;-82
2022/11/26 00:03:18;;;;;;;1.23;0.70;;;;;;;;;;5062916;28;20358;-83
2022/11/26 00:05:46;;;;;;;1.63;0.75;;;;;;;;;;5056571;28;20103;-83
2022/11/26 00:08:33;;;;;;;2.58;1.25;;;;;;;;;;5061337;28;20040;-83
2022/11/26 00:10:59;;;;;;;0.20;0.20;;;;;;;;;;5062013;28;20103;-82
2022/11/26 00:13:27;;;;;;;0.50;0.50;;;;;;;;;;5057587;28;20083;-83
2022/11/26 00:15:53;;;;;;;1.02;0.90;;;;;;;;;;5059004;28;20059;-82
2022/11/26 00:18:22;;;;;;;0.47;0.47;;;;;;;;;;5063589;28;20057;-82
2022/11/26 00:20:52;;;;;;;0.33;0.33;;;;;;;;;;5067770;28;20451;-82
2022/11/26 00:23:23;;;;;;;1.40;1.00;;;;;;;;;;5063576;28;20016;-82
2022/11/26 00:25:52;;;;;;;1.48;0.50;;;;;;;;;;5059432;28;20056;-82
2022/11/26 00:28:33;;;;;;;1.52;0.70;;;;;;;;;;5068158;28;20073;-82
2022/11/26 00:31:01;;;;;;;0.88;0.77;;;;;;;;;;5060361;28;20041;-82
2022/11/26 00:33:28;;;;;;;0.90;0.90;;;;;;;;;;5061486;28;20032;-83
2022/11/26 00:35:57;;;;;;;1.20;1.10;;;;;;;;;;5061930;28;20025;-83
2022/11/26 00:38:24;;;;;;;2.55;0.93;;;;;;;;;;5063572;28;20073;-82
2022/11/26 00:40:50;;;;;;;7.78;1.70;;;;;;;;;;5064940;28;20564;-84
2022/11/26 00:43:17;;;;;;;1.05;0.95;;;;;;;;;;5060171;28;20021;-82
2022/11/26 00:45:43;;;;;;;2.88;1.08;;;;;;;;;;5062126;28;20491;-83
2022/11/26 00:48:08;;;;;;;1.08;0.77;;;;;;;;;;5060370;28;20031;-82
2022/11/26 00:50:40;;;;;;;6.07;1.27;;;;;;;;;;5064349;28;20032;-83
2022/11/26 00:53:07;;;;;;;0.63;0.63;;;;;;;;;;5063545;28;20380;-83
2022/11/26 00:55:37;;;;;;;1.38;1.00;;;;;;;;;;5064188;28;20115;-84
2022/11/26 00:58:03;;;;;;;0.88;0.82;;;;;;;;;;5062516;28;20120;-84
2022/11/26 01:00:31;;;;;;;2.50;0.70;;;;;;;;;;5058072;28;20509;-82
2022/11/26 01:02:57;;;;;;;0.57;0.57;;;;;;;;;;5060886;28;20050;-84
2022/11/26 01:05:25;;;;;;;0.60;0.60;;;;;;;;;;5065026;28;20025;-83
2022/11/26 01:07:52;;;;;;;0.40;0.40;;;;;;;;;;5056501;28;20476;-83
2022/11/26 01:10:26;;;;;;;0.55;0.55;;;;;;;;;;5062688;28;20528;-84
2022/11/26 01:12:52;;;;;;;0.73;0.70;;;;;;;;;;5059659;28;20350;-85
2022/11/26 01:15:20;;;;;;;0.20;0.20;;;;;;;;;;5060013;28;20048;-82
2022/11/26 01:17:46;;;;;;;1.83;1.38;;;;;;;;;;5061954;28;20016;-86
2022/11/26 01:20:28;;;;;;;1.75;0.47;;;;;;;;;;5057904;28;20419;-85
2022/11/26 01:22:55;;;;;;;0.38;0.38;;;;;;;;;;5060379;28;20112;-83
2022/11/26 01:25:22;;;;;;;1.17;0.65;;;;;;;;;;5064544;28;20028;-83
2022/11/26 01:27:47;;;;;;;0.65;0.43;;;;;;;;;;5063614;28;20043;-82
2022/11/26 01:30:19;;;;;;;0.40;0.40;;;;;;;;;;5054307;28;20100;-83
2022/11/26 01:32:45;;;;;;;0.63;0.60;;;;;;;;;;5062898;28;20107;-82
2022/11/26 01:35:10;;;;;;;0.63;0.63;;;;;;;;;;5060073;28;20115;-82
2022/11/26 01:37:36;;;;;;;0.52;0.52;;;;;;;;;;5067519;28;20044;-84
2022/11/26 01:40:03;;;;;;;1.70;0.47;;;;;;;;;;5063594;28;20047;-84
2022/11/26 01:42:39;;;;;;;0.20;0.20;;;;;;;;;;5058690;28;20052;-83
2022/11/26 01:45:14;;;;;;;0.30;0.30;;;;;;;;;;5062012;28;20548;-83
2022/11/26 01:47:40;;;;;;;0.10;0.10;;;;;;;;;;5059325;28;20036;-84
2022/11/26 01:50:30;;;;;;;1.00;0.57;;;;;;;;;;5058242;28;20031;-84
2022/11/26 01:53:08;;;;;;;0.25;0.25;;;;;;;;;;5060451;28;20029;-83
2022/11/26 01:55:57;;;;;;;0.43;0.43;;;;;;;;;;5063537;28;20368;-84
2022/11/26 01:58:36;;;;;;;0.20;0.20;;;;;;;;;;5060022;28;20096;-84
2022/11/26 02:01:01;;;;;;;0.30;0.30;;;;;;;;;;5056328;28;20033;-83
2022/11/26 02:03:31;;;;;;;0.30;0.30;;;;;;;;;;5059112;28;20070;-84
2022/11/26 02:06:02;;;;;;;1.45;0.60;;;;;;;;;;5060180;28;20025;-85
2022/11/26 02:08:30;;;;;;;0.32;0.32;;;;;;;;;;5063235;28;20060;-82
2022/11/26 02:10:55;;;;;;;0.20;0.20;;;;;;;;;;5063441;28;20090;-82
2022/11/26 02:13:21;;;;;;;0.35;0.35;;;;;;;;;;5056996;28;20040;-83
2022/11/26 02:16:02;;;;;;;0.25;0.25;;;;;;;;;;5058411;28;20021;-84
2022/11/26 02:18:34;;;;;;;0.10;0.10;;;;;;;;;;5059925;28;20032;-84
2022/11/26 02:21:04;;;;;;;0.30;0.30;;;;;;;;;;5059479;28;20025;-85
2022/11/26 02:24:14;;;;;;;0.20;0.20;;;;;;;;;;5061614;28;20375;-83
2022/11/26 02:26:55;;;;;;;0.22;0.22;;;;;;;;;;5063185;28;20408;-82
2022/11/26 02:30:18;;;;;;;0.10;0.10;;;;;;;;;;5059406;28;20036;-82
2022/11/26 02:32:57;;;;;;;0.20;0.20;;;;;;;;;;5040900;28;20017;-82
2022/11/26 02:35:37;;;;;;;0.65;0.63;;;;;;;;;;5066811;28;20380;-83
2022/11/26 02:38:06;;;;;;;0.20;0.20;;;;;;;;;;5061441;28;20029;-83
2022/11/26 02:40:32;;;;;;;0.60;0.60;;;;;;;;;;5058032;28;20028;-83
2022/11/26 02:42:57;;;;;;;1.00;0.57;;;;;;;;;;5065958;28;20024;-82
2022/11/26 02:45:26;;;;;;;0.98;0.98;;;;;;;;;;5064723;28;20039;-83
2022/11/26 02:47:54;;;;;;;0.98;0.70;;;;;;;;;;5056724;28;20033;-83
2022/11/26 02:50:38;;;;;;;0.70;0.40;;;;;;;;;;5060365;28;20028;-84
2022/11/26 02:53:04;;;;;;;0.85;0.45;;;;;;;;;;5055660;28;20025;-83
2022/11/26 02:55:33;;;;;;;1.38;1.27;;;;;;;;;;5059819;28;20052;-84
2022/11/26 02:58:00;;;;;;;0.20;0.20;;;;;;;;;;5057120;28;20381;-83
2022/11/26 03:00:26;;;;;;;0.30;0.30;;;;;;;;;;5058196;28;20031;-82
2022/11/26 03:03:04;;;;;;;0.22;0.22;;;;;;;;;;5058108;28;20111;-82
2022/11/26 03:05:32;;;;;;;0.60;0.60;;;;;;;;;;5056554;28;20028;-84
2022/11/26 03:07:59;;;;;;;0.25;0.25;;;;;;;;;;5061561;28;20029;-83
2022/11/26 03:10:29;;;;;;;0.20;0.20;;;;;;;;;;5058794;28;20100;-84
2022/11/26 03:12:55;;;;;;;0.30;0.30;;;;;;;;;;5057014;28;20082;-84
2022/11/26 03:15:20;;;;;;;0.38;0.38;;;;;;;;;;5056504;28;20477;-82
2022/11/26 03:17:46;;;;;;;0.25;0.25;;;;;;;;;;5062922;28;20040;-82
2022/11/26 03:20:12;;;;;;;0.70;0.65;;;;;;;;;;5061029;28;20020;-82
2022/11/26 03:22:37;;;;;;;0.43;0.20;;;;;;;;;;5058299;28;20033;-84
2022/11/26 03:25:04;;;;;;;0.50;0.50;;;;;;;;;;5062059;28;20020;-83
2022/11/26 03:27:29;;;;;;;0.60;0.60;;;;;;;;;;5058449;28;20025;-84
2022/11/26 03:29:55;;;;;;;0.30;0.30;;;;;;;;;;5059906;28;20354;-85
2022/11/26 03:32:20;;;;;;;0.30;0.30;;;;;;;;;;5058359;28;20052;-83
2022/11/26 03:34:46;;;;;;;0.30;0.30;;;;;;;;;;5064554;28;20060;-83
2022/11/26 03:37:11;;;;;;;0.30;0.30;;;;;;;;;;5063800;28;20074;-83
2022/11/26 03:39:37;;;;;;;0.40;0.40;;;;;;;;;;5055040;28;20029;-84
2022/11/26 03:42:02;;;;;;;0.20;0.20;;;;;;;;;;5064198;28;20052;-86
2022/11/26 03:44:28;;;;;;;0.15;0.15;;;;;;;;;;5058394;28;20035;-86
2022/11/26 03:46:53;;;;;;;0.25;0.25;;;;;;;;;;5056363;28;20419;-85
2022/11/26 03:49:19;;;;;;;0.30;0.30;;;;;;;;;;5061836;28;20025;-84
2022/11/26 03:51:44;;;;;;;0.20;0.20;;;;;;;;;;5065494;28;20036;-83
2022/11/26 03:54:09;;;;;;;0.55;0.52;;;;;;;;;;5061802;28;20460;-85
2022/11/26 03:56:37;;;;;;;0.90;0.85;;;;;;;;;;5063617;28;20135;-84
2022/11/26 03:59:02;;;;;;;2.22;1.08;;;;;;;;;;5055452;28;20798;-85
2022/11/26 04:01:28;;;;;;;0.75;0.52;;;;;;;;;;5060657;28;20159;-83
2022/11/26 04:03:53;;;;;;;0.73;0.73;;;;;;;;;;5062805;28;20052;-84
2022/11/26 04:06:19;;;;;;;0.30;0.30;;;;;;;;;;5058321;28;20056;-83
2022/11/26 04:08:44;;;;;;;0.55;0.52;;;;;;;;;;5059393;28;20133;-84
2022/11/26 04:11:10;;;;;;;0.50;0.50;;;;;;;;;;5060770;28;20041;-85
2022/11/26 04:13:35;;;;;;;1.55;0.40;;;;;;;;;;5068337;28;20058;-86
2022/11/26 04:16:01;;;;;;;0.75;0.43;;;;;;;;;;5057782;28;20412;-85
2022/11/26 04:18:26;;;;;;;0.47;0.47;;;;;;;;;;5058381;28;20047;-87
2022/11/26 04:20:52;;;;;;;1.48;0.65;;;;;;;;;;5059260;28;20036;-85
2022/11/26 04:23:17;;;;;;;1.67;0.45;;;;;;;;;;5069640;28;20031;-87
2022/11/26 04:25:42;;;;;;;0.20;0.20;;;;;;;;;;5062136;28;20074;-85
2022/11/26 04:28:08;;;;;;;0.63;0.40;;;;;;;;;;5064858;28;20477;-86
2022/11/26 04:30:33;;;;;;;0.20;0.20;;;;;;;;;;5058697;28;20132;-84
2022/11/26 04:32:59;;;;;;;2.35;0.77;;;;;;;;;;5064563;28;20021;-88
2022/11/26 04:35:24;;;;;;;0.50;0.50;;;;;;;;;;5063137;28;20025;-84
2022/11/26 04:37:49;;;;;;;0.30;0.30;;;;;;;;;;5065065;28;20084;-88
2022/11/26 04:40:15;;;;;;;0.22;0.22;;;;;;;;;;5064809;28;20055;-85
2022/11/26 04:42:40;;;;;;;0.70;0.70;;;;;;;;;;5064187;28;20512;-85
2022/11/26 04:45:06;;;;;;;0.40;0.40;;;;;;;;;;5062245;28;20017;-84
2022/11/26 04:47:32;;;;;;;0.38;0.38;;;;;;;;;;5064230;28;20029;-87
2022/11/26 04:49:57;;;;;;;0.55;0.55;;;;;;;;;;5065340;28;20025;-86
2022/11/26 04:52:22;;;;;;;0.43;0.43;;;;;;;;;;5060588;28;20025;-87
2022/11/26 04:54:48;;;;;;;2.15;1.50;;;;;;;;;;5061106;28;20389;-84
2022/11/26 04:57:13;;;;;;;0.20;0.20;;;;;;;;;;5065235;28;20038;-87
2022/11/26 04:59:39;;;;;;;0.52;0.52;;;;;;;;;;5068250;28;20425;-86
2022/11/26 05:02:04;;;;;;;0.30;0.30;;;;;;;;;;5065421;28;20802;-86
2022/11/26 05:04:30;;;;;;;0.38;0.35;;;;;;;;;;5064347;28;20028;-86
2022/11/26 05:06:55;;;;;;;0.20;0.20;;;;;;;;;;5064593;28;20037;-84
2022/11/26 05:09:23;;;;;;;0.65;0.60;;;;;;;;;;5065348;28;20029;-86
2022/11/26 05:11:48;;;;;;;0.45;0.45;;;;;;;;;;5063799;28;20574;-88
2022/11/26 05:14:14;;;;;;;0.30;0.30;;;;;;;;;;5063766;28;20025;-84
2022/11/26 05:16:39;;;;;;;0.50;0.50;;;;;;;;;;5065586;28;20100;-85
2022/11/26 05:19:05;;;;;;;0.80;0.80;;;;;;;;;;5063083;28;20029;-84
2022/11/26 05:21:30;;;;;;;0.20;0.20;;;;;;;;;;5058142;28;20060;-83
2022/11/26 05:23:55;;;;;;;0.70;0.70;;;;;;;;;;5062446;28;20098;-86
2022/11/26 05:26:21;;;;;;;0.90;0.65;;;;;;;;;;5057777;28;20111;-85
2022/11/26 05:28:46;;;;;;;1.05;1.00;;;;;;;;;;5058002;28;20046;-85
2022/11/26 05:31:12;;;;;;;0.30;0.30;;;;;;;;;;5063964;28;20123;-87
2022/11/26 05:33:37;;;;;;;0.50;0.50;;;;;;;;;;5056426;28;20032;-86
2022/11/26 05:36:03;;;;;;;0.60;0.60;;;;;;;;;;5060610;28;20115;-84
2022/11/26 05:38:29;;;;;;;1.13;0.98;;;;;;;;;;5062658;28;20036;-87
2022/11/26 05:40:54;;;;;;;1.17;1.05;;;;;;;;;;5057917;28;20493;-85
2022/11/26 05:43:20;;;;;;;1.55;0.88;;;;;;;;;;5060207;28;20480;-85
2022/11/26 05:45:45;;;;;;;0.85;0.85;;;;;;;;;;5060424;28;20029;-85
2022/11/26 05:48:10;;;;;;;0.55;0.55;;;;;;;;;;5061271;28;20036;-88
2022/11/26 05:50:36;;;;;;;1.35;0.90;;;;;;;;;;5056627;28;20059;-85
2022/11/26 05:53:02;;;;;;;0.80;0.80;;;;;;;;;;5060593;28;20025;-85
2022/11/26 05:55:27;;;;;;;0.73;0.73;;;;;;;;;;5056381;28;20431;-82
2022/11/26 05:57:52;;;;;;;0.90;0.90;;;;;;;;;;5059315;28;20036;-84
2022/11/26 06:00:18;;;;;;;0.82;0.73;;;;;;;;;;5063897;28;20458;-83
2022/11/26 06:02:43;;;;;;;1.05;1.00;;;;;;;;;;5052953;28;20050;-83
2022/11/26 06:05:09;;;;;;;4.57;2.63;;;;;;;;;;5056826;28;20021;-84
2022/11/26 06:07:38;;;;;;;7.63;3.55;;;;;;;;;;5061273;28;20035;-88
2022/11/26 06:10:04;;;;;;;7.93;4.03;;;;;;;;;;5061067;28;20036;-84
2022/11/26 06:12:29;;;;;;;2.38;2.08;;;;;;;;;;5063019;28;20461;-85
2022/11/26 06:14:55;;;;;;;3.30;2.33;;;;;;;;;;5059339;28;20050;-82
2022/11/26 06:17:20;;;;;;;5.22;3.08;;;;;;;;;;5058783;28;20112;-86
2022/11/26 06:19:45;;;;;;;3.95;3.20;;;;;;;;;;5060797;28;20021;-85
2022/11/26 06:22:11;;;;;;;8.85;6.53;;;;;;;;;;5063162;28;20078;-83
2022/11/26 06:24:36;;;;;;;14.20;5.38;;;;;;;;;;5065502;28;20017;-84
2022/11/26 06:27:02;;;;;;;8.88;4.32;;;;;;;;;;5061986;28;20025;-83
2022/11/26 06:29:28;;;;;;;7.35;3.60;;;;;;;;;;5060305;28;20098;-85
2022/11/26 06:31:53;;;;;;;4.18;2.33;;;;;;;;;;5059967;28;20033;-84
2022/11/26 06:34:18;;;;;;;10.18;5.15;;;;;;;;;;5054781;28;20020;-83
2022/11/26 06:36:44;;;;;;;6.53;3.55;;;;;;;;;;5054310;28;20079;-83
2022/11/26 06:39:09;;;;;;;6.72;2.47;;;;;;;;;;5059740;28;20025;-84
2022/11/26 06:41:35;;;;;;;2.42;2.22;;;;;;;;;;5057535;28;20107;-83
2022/11/26 06:44:01;;;;;;;7.95;2.42;;;;;;;;;;5060476;28;20051;-84
2022/11/26 06:46:27;;;;;;;4.88;2.53;;;;;;;;;;5061325;28;20404;-84
2022/11/26 06:48:52;;;;;;;7.03;2.90;;;;;;;;;;5057540;28;20037;-83
2022/11/26 06:51:21;;;;;;;2.22;1.60;;;;;;;;;;5058316;28;20029;-86
2022/11/26 06:53:47;;;;;;;1.92;1.83;;;;;;;;;;5052367;28;20036;-83
2022/11/26 06:56:14;;;;;;;4.25;2.85;;;;;;;;;;5063010;28;20029;-84
2022/11/26 06:58:40;;;;;;;2.20;1.45;;;;;;;;;;5060851;28;20025;-84
2022/11/26 07:01:15;;;;;;;7.07;2.80;;;;;;;;;;5060728;28;20063;-83
2022/11/26 07:03:40;;;;;;;2.67;2.28;;;;;;;;;;5060062;28;20032;-85
2022/11/26 07:06:17;;;;;;;2.47;2.28;;;;;;;;;;5056638;28;20029;-86
2022/11/26 07:08:43;;;;;;;3.47;2.50;;;;;;;;;;5051467;28;20033;-84
2022/11/26 07:11:09;;;;;;;10.98;6.30;;;;;;;;;;5055313;28;20495;-85
2022/11/26 07:13:35;;;;;;;2.05;1.58;;;;;;;;;;5061534;28;20029;-86
2022/11/26 07:16:04;;;;;;;7.80;4.80;;;;;;;;;;5050593;28;20805;-83
2022/11/26 07:18:30;;;;;;;6.47;4.75;;;;;;;;;;5054315;28;20024;-84
2022/11/26 07:20:56;;;;;;;5.25;3.10;;;;;;;;;;5055146;28;20376;-85
2022/11/26 07:23:21;;;;;;;3.10;2.70;;;;;;;;;;5053249;28;20096;-86
2022/11/26 07:25:47;;;;;;;5.05;2.72;;;;;;;;;;5058241;28;20411;-83
2022/11/26 07:28:12;;;;;;;7.15;3.08;;;;;;;;;;5058803;28;20083;-84
2022/11/26 07:30:38;;;;;;;3.22;2.05;;;;;;;;;;5054802;28;20403;-80
2022/11/26 07:33:03;;;;;;;6.68;3.30;;;;;;;;;;5064670;28;20047;-85
2022/11/26 07:35:29;;;;;;;2.25;1.60;;;;;;;;;;5060626;28;20162;-85
2022/11/26 07:37:55;;;;;;;5.03;2.63;;;;;;;;;;5050613;28;20051;-84
2022/11/26 07:40:20;;;;;;;1.13;1.05;;;;;;;;;;5055248;28;20044;-84
2022/11/26 07:42:45;;;;;;;2.90;2.38;;;;;;;;;;5062880;28;20040;-84
2022/11/26 07:45:11;;;;;;;5.28;3.78;;;;;;;;;;5061335;28;20023;-84
2022/11/26 07:47:36;;;;;;;2.40;2.20;;;;;;;;;;5061408;28;20112;-86
2022/11/26 07:50:02;;;;;;;4.30;2.72;;;;;;;;;;5063885;28;20075;-82
2022/11/26 07:52:28;;;;;;;2.80;2.03;;;;;;;;;;5063011;28;20081;-83
2022/11/26 07:54:53;;;;;;;3.80;2.60;;;;;;;;;;5064099;28;20029;-83
2022/11/26 07:57:21;;;;;;;4.68;3.42;;;;;;;;;;5068544;28;20037;-84
2022/11/26 07:59:46;;;;;;;6.28;3.00;;;;;;;;;;5064253;28;20400;-85
2022/11/26 08:02:13;;;;;;;2.60;1.90;;;;;;;;;;5061270;28;20107;-84
2022/11/26 08:04:39;;;;;;;3.22;2.00;;;;;;;;;;5055223;28;20021;-83
2022/11/26 08:07:05;;;;;;;1.55;1.30;;;;;;;;;;5061829;28;20036;-83
2022/11/26 08:09:30;;;;;;;3.70;2.65;;;;;;;;;;5054715;28;20055;-83
2022/11/26 08:11:55;;;;;;;3.22;2.25;;;;;;;;;;5063509;28;20120;-83
2022/11/26 08:14:21;;;;;;;2.50;2.28;;;;;;;;;;5058784;28;20033;-82
2022/11/26 08:16:46;;;;;;;3.75;2.03;;;;;;;;;;5060075;28;20038;-81
2022/11/26 08:19:12;;;;;;;3.65;2.63;;;;;;;;;;5052394;28;20481;-85
2022/11/26 08:21:39;;;;;;;2.22;1.88;;;;;;;;;;5056188;28;20543;-85
2022/11/26 08:24:06;;;;;;;3.13;1.95;;;;;;;;;;5048789;28;20054;-82
2022/11/26 08:26:31;;;;;;;3.90;2.65;;;;;;;;;;5054271;28;20558;-85
2022/11/26 08:28:58;;;;;;;3.95;2.85;;;;;;;;;;5060788;28;20091;-83
2022/11/26 08:31:26;;;;;;;4.35;2.47;;;;;;;;;;5055674;28;20021;-83
2022/11/26 08:33:54;;;;;;;2.28;1.70;;;;;;;;;;5055496;28;20112;-83
2022/11/26 08:36:19;;;;;;;2.28;1.55;;;;;;;;;;5052522;28;20446;-83
2022/11/26 08:38:45;;;;;;;4.22;2.45;;;;;;;;;;5062804;28;20082;-83
2022/11/26 08:41:11;;;;;;;3.03;2.38;;;;;;;;;;5054302;28;20072;-83
2022/11/26 08:43:37;;;;;;;3.97;2.30;;;;;;;;;;5057301;28;20021;-83
2022/11/26 08:46:03;;;;;;;4.05;2.53;;;;;;;;;;5061571;28;20086;-82
2022/11/26 08:48:30;;;;;;;2.92;2.70;;;;;;;;;;5056669;28;20104;-83
2022/11/26 08:50:59;;;;;;;3.75;2.17;;;;;;;;;;5053212;28;20046;-82
2022/11/26 08:53:26;;;;;;;5.10;2.50;;;;;;;;;;5053587;28;20025;-83
2022/11/26 08:55:51;;;;;;;2.83;2.53;;;;;;;;;;5050171;28;20068;-83
2022/11/26 08:58:17;;;;;;;2.88;2.42;;;;;;;;;;5049785;28;20065;-82
2022/11/26 09:00:43;;;;;;;4.13;2.58;;;;;;;;;;5044148;28;20116;-82
2022/11/26 09:03:08;;;;;;;3.22;2.20;;;;;;;;;;5055122;28;20059;-83
2022/11/26 09:05:33;;;;;;;1.90;1.40;;;;;;;;;;5052126;28;20703;-83
2022/11/26 09:07:59;;;;;;;2.67;2.47;;;;;;;;;;5059329;28;20198;-83
2022/11/26 09:10:24;;;;;;;4.32;2.75;;;;;;;;;;5061501;28;20025;-82
2022/11/26 09:12:50;;;;;;;4.85;2.90;;;;;;;;;;5055568;28;20434;-85
2022/11/26 09:15:16;;;;;;;4.38;2.67;;;;;;;;;;5054426;28;20043;-81
2022/11/26 09:17:41;;;;;;;3.90;2.47;;;;;;;;;;5055657;28;20033;-82
2022/11/26 09:20:07;;;;;;;5.22;3.05;;;;;;;;;;5055031;28;21407;-81
2022/11/26 09:22:34;;;;;;;5.38;3.47;;;;;;;;;;5059348;28;20028;-84
2022/11/26 09:24:59;;;;;;;5.05;2.85;;;;;;;;;;5055087;28;20040;-84
2022/11/26 09:27:24;;;;;;;3.50;2.75;;;;;;;;;;5053819;28;20036;-82
2022/11/26 09:29:50;;;;;;;2.13;1.92;;;;;;;;;;5050794;28;20087;-85
2022/11/26 09:32:15;;;;;;;3.30;2.33;;;;;;;;;;5055328;28;20078;-82
2022/11/26 09:34:41;;;;;;;5.32;2.83;;;;;;;;;;5053631;28;20037;-81
2022/11/26 09:37:06;;;;;;;5.30;2.90;;;;;;;;;;5057666;28;20480;-84
2022/11/26 09:39:32;;;;;;;4.25;3.42;;;;;;;;;;5053270;28;20453;-85
2022/11/26 09:42:39;;;;;;;4.03;3.05;;;;;;;;;;5053507;28;20044;-81
2022/11/26 09:45:37;;;;;;;10.27;4.90;;;;;;;;;;5053762;28;20048;-82
2022/11/26 09:48:04;;;;;;;3.55;2.78;;;;;;;;;;5053923;28;20029;-82
2022/11/26 09:50:34;;;;;;;5.82;3.92;;;;;;;;;;5060090;28;20090;-83
2022/11/26 09:53:20;;;;;;;5.53;3.65;;;;;;;;;;5059433;28;20032;-84
2022/11/26 09:55:50;;;;;;;3.17;2.65;;;;;;;;;;5056592;28;20640;-85
2022/11/26 09:58:27;;;;;;;4.70;2.65;;;;;;;;;;5059831;28;20523;-85
2022/11/26 10:00:54;;;;;;;4.00;2.72;;;;;;;;;;5065252;28;20020;-83
2022/11/26 10:03:21;;;;;;;5.78;3.00;;;;;;;;;;5067553;28;20440;-83
2022/11/26 10:06:04;;;;;;;3.25;2.80;;;;;;;;;;5055140;28;20033;-82
2022/11/26 10:09:07;;;;;;;6.70;4.88;;;;;;;;;;5063923;28;20063;-84
2022/11/26 10:11:50;;;;;;;5.97;4.03;;;;;;;;;;5057463;28;20045;-87
2022/11/26 10:14:44;;;;;;;3.88;2.88;;;;;;;;;;5056899;28;20075;-84
2022/11/26 10:17:35;;;;;;;4.15;3.13;;;;;;;;;;5055679;28;20028;-85
2022/11/26 10:20:27;;;;;;;5.53;3.80;;;;;;;;;;5058866;28;20032;-85
2022/11/26 10:22:59;;;;;;;6.07;3.50;;;;;;;;;;5053452;28;20116;-83
2022/11/26 10:25:44;;;;;;;3.03;2.72;;;;;;;;;;5050496;28;20089;-84
2022/11/26 10:28:32;;;;;;;11.32;3.33;;;;;;;;;;5054910;28;20025;-85
2022/11/26 10:31:04;;;;;;;8.13;3.08;;;;;;;;;;5058625;28;20488;-85
2022/11/26 10:33:35;;;;;;;3.40;2.70;;;;;;;;;;5058515;28;20047;-83
2022/11/26 10:36:06;;;;;;;3.55;2.80;;;;;;;;;;5058055;28;20087;-83
2022/11/26 10:38:31;;;;;;;5.60;3.72;;;;;;;;;;5053093;28;20055;-84
2022/11/26 10:40:57;;;;;;;5.57;3.53;;;;;;;;;;5056424;28;20084;-83
2022/11/26 10:43:23;;;;;;;3.95;2.70;;;;;;;;;;5059248;28;20032;-84
2022/11/26 10:45:52;;;;;;;7.45;4.82;;;;;;;;;;5056981;28;20048;-84
2022/11/26 10:48:25;;;;;;;4.45;3.33;;;;;;;;;;5058740;28;20036;-82
2022/11/26 10:50:59;;;;;;;4.00;2.72;;;;;;;;;;5058849;28;20044;-81
2022/11/26 10:53:26;;;;;;;6.38;3.78;;;;;;;;;;5047050;28;20021;-81
2022/11/26 10:55:55;;;;;;;7.82;4.50;;;;;;;;;;5055358;28;20035;-81
2022/11/26 10:58:24;;;;;;;6.35;3.92;;;;;;;;;;5058375;28;20043;-82
2022/11/26 11:00:49;;;;;;;5.43;3.63;;;;;;;;;;5057629;28;20116;-83
2022/11/26 11:03:19;;;;;;;6.45;4.28;;;;;;;;;;5053767;28;20116;-80
2022/11/26 11:05:44;;;;;;;14.93;3.05;;;;;;;;;;5049200;28;20036;-82
2022/11/26 11:08:33;;;;;;;6.10;3.72;;;;;;;;;;5054499;28;20028;-82
2022/11/26 11:11:01;;;;;;;5.88;2.53;;;;;;;;;;5053698;28;20044;-81
2022/11/26 11:13:42;;;;;;;4.43;2.42;;;;;;;;;;5053122;28;20419;-84
2022/11/26 11:16:09;;;;;;;7.05;4.00;;;;;;;;;;5051104;28;20037;-85
2022/11/26 11:18:35;;;;;;;7.50;4.20;;;;;;;;;;5055480;28;20102;-83
2022/11/26 11:21:03;;;;;;;6.47;3.45;;;;;;;;;;5056195;28;20031;-83
2022/11/26 11:23:31;;;;;;;10.85;3.72;;;;;;;;;;5047767;28;20033;-85
2022/11/26 11:26:15;;;;;;;4.03;2.67;;;;;;;;;;5043371;28;20052;-84
2022/11/26 11:28:47;;;;;;;2.10;1.80;;;;;;;;;;5050967;28;20051;-82
2022/11/26 11:31:18;;;;;;;4.82;3.67;;;;;;;;;;5057241;28;20032;-86
2022/11/26 11:33:44;;;;;;;3.97;3.10;;;;;;;;;;5059267;28;20103;-85
2022/11/26 11:36:13;;;;;;;7.30;4.28;;;;;;;;;;5057647;28;20560;-82
2022/11/26 11:39:02;;;;;;;5.43;3.10;;;;;;;;;;5059585;28;20119;-81
2022/11/26 11:41:32;;;;;;;;;;;;;;;;;;5052833;28;20063;-84
2022/11/26 11:44:03;;;;;;;2.70;2.08;;;;;;;;;;5056921;28;19918;-85
2022/11/26 11:46:37;;;;;;;4.15;2.90;;;;;;;;;;5052155;28;20074;-86
2022/11/26 11:49:39;;;;;;;6.07;3.45;;;;;;;;;;5057296;28;20047;-83
2022/11/26 11:52:26;;;;;;;9.60;5.45;;;;;;;;;;5055749;28;20475;-81
2022/11/26 11:55:18;;;;;;;4.22;3.03;;;;;;;;;;5055895;28;20049;-83
2022/11/26 11:57:43;;;;;;;10.15;2.67;;;;;;;;;;5047882;28;20384;-82
2022/11/26 12:00:17;;;;;;;4.32;2.55;;;;;;;;;;5057209;28;20037;-84
2022/11/26 12:02:45;;;;;;;4.40;2.67;;;;;;;;;;5053037;28;20055;-82
2022/11/26 12:05:36;;;;;;;4.03;2.22;;;;;;;;;;5057618;28;20017;-84
2022/11/26 12:08:16;;;;;;;3.40;2.05;;;;;;;;;;5055188;28;20055;-83
2022/11/26 12:11:13;;;;;;;6.07;4.15;;;;;;;;;;5056732;28;20120;-81
2022/11/26 12:13:47;;;;;;;9.10;4.75;;;;;;;;;;5052715;28;20107;-84
2022/11/26 12:16:13;;;;;;;4.60;3.40;;;;;;;;;;5051793;28;20419;-81
2022/11/26 12:18:51;;;;;;;4.30;3.80;;;;;;;;;;5059856;28;20107;-82
2022/11/26 12:21:28;;;;;;;5.78;3.70;;;;;;;;;;5061742;28;20043;-81
2022/11/26 12:24:34;;;;;;;2.85;2.10;;;;;;;;;;5058486;28;20051;-81
2022/11/26 12:27:22;;;;;;;3.75;2.60;;;;;;;;;;5051375;28;20047;-84
2022/11/26 12:29:56;;;;;;;3.58;2.30;;;;;;;;;;5060464;28;20028;-82
2022/11/26 12:32:41;;;;;;;3.80;3.33;;;;;;;;;;5056002;28;20408;-82
2022/11/26 12:35:36;;;;;;;3.85;2.92;;;;;;;;;;5063501;28;20036;-84
2022/11/26 12:38:24;;;;;;;2.35;1.70;;;;;;;;;;5060274;28;20035;-82
2022/11/26 12:40:59;;;;;;;5.30;2.83;;;;;;;;;;5064115;28;20492;-81
2022/11/26 12:43:40;;;;;;;4.20;3.15;;;;;;;;;;5060746;28;20025;-83
2022/11/26 12:46:29;;;;;;;3.42;2.35;;;;;;;;;;5068677;28;20082;-82
2022/11/26 12:49:25;;;;;;;4.83;2.23;;;;;;;;;;5058411;28;20036;-82
2022/11/26 12:52:12;;;;;;;4.18;2.58;;;;;;;;;;5064617;28;20024;-84
2022/11/26 12:54:53;;;;;;;2.78;2.10;;;;;;;;;;5061797;28;20541;-85
2022/11/26 12:57:37;;;;;;;2.22;1.88;;;;;;;;;;5061242;28;20058;-81
2022/11/26 13:00:34;;;;;;;3.28;2.58;;;;;;;;;;5065156;28;20036;-82
2022/11/26 13:02:59;;;;;;;4.47;2.33;;;;;;;;;;5058985;28;20037;-81
2022/11/26 13:05:45;;;;;;;3.83;2.78;;;;;;;;;;5062030;28;20465;-80
2022/11/26 13:08:31;;;;;;;6.82;3.40;;;;;;;;;;5044539;28;20036;-83
2022/11/26 13:11:05;;;;;;;3.28;2.55;;;;;;;;;;5054576;28;20029;-83
2022/11/26 13:13:57;;;;;;;3.15;2.25;;;;;;;;;;5062971;28;20033;-82
2022/11/26 13:16:26;;;;;;;2.90;2.33;;;;;;;;;;5067567;28;20460;-84
2022/11/26 13:18:58;;;;;;;4.18;1.95;;;;;;;;;;5056269;28;20029;-81
2022/11/26 13:21:35;;;;;;;2.30;2.03;;;;;;;;;;5053713;28;20040;-82
2022/11/26 13:24:30;;;;;;;4.68;2.83;;;;;;;;;;5063688;28;20120;-82
2022/11/26 13:27:34;;;;;;;2.45;2.13;;;;;;;;;;5064958;28;20036;-82
2022/11/26 13:30:18;;;;;;;2.47;1.65;;;;;;;;;;5058480;28;20362;-84
2022/11/26 13:32:56;;;;;;;3.30;2.75;;;;;;;;;;5058131;28;20025;-83
2022/11/26 13:35:48;;;;;;;3.38;2.55;;;;;;;;;;5054509;28;20021;-85
2022/11/26 13:38:25;;;;;;;2.95;1.92;;;;;;;;;;5060312;28;20082;-82
2022/11/26 13:41:09;;;;;;;5.75;3.55;;;;;;;;;;5054265;28;20072;-82
2022/11/26 13:43:43;;;;;;;2.60;1.80;;;;;;;;;;5060786;28;20044;-81
2022/11/26 13:46:08;;;;;;;2.30;1.90;;;;;;;;;;5062412;28;20460;-83
2022/11/26 13:48:59;;;;;;;3.10;2.30;;;;;;;;;;5061093;28;20028;-81
2022/11/26 13:51:49;;;;;;;2.83;2.17;;;;;;;;;;5058714;28;20037;-83
2022/11/26 13:54:14;;;;;;;;;;;;;;;;;;5068880;28;20460;-82
2022/11/26 13:56:41;;;;;;;2.22;1.63;;;;;;;;;;5063415;28;19913;-82
2022/11/26 13:59:22;;;;;;;11.52;2.58;;;;;;;;;;5062173;28;20149;-82
2022/11/26 14:01:48;;;;;;;3.83;2.30;;;;;;;;;;5064283;28;20036;-84
2022/11/26 14:04:22;;;;;;;3.30;2.75;;;;;;;;;;5058216;28;20017;-82
2022/11/26 14:07:03;;;;;;;3.70;2.58;;;;;;;;;;5066538;28;20025;-80
2022/11/26 14:09:40;;;;;;;3.75;2.38;;;;;;;;;;5059880;28;20464;-82
2022/11/26 14:12:06;;;;;;;3.22;2.47;;;;;;;;;;5052219;28;20469;-81
2022/11/26 14:14:33;;;;;;;3.60;3.17;;;;;;;;;;5066123;28;20154;-83
2022/11/26 14:17:01;;;;;;;3.55;3.08;;;;;;;;;;5061357;28;20492;-83
2022/11/26 14:19:38;;;;;;;3.15;2.22;;;;;;;;;;5065788;28;20086;-83
2022/11/26 14:22:05;;;;;;;1.45;1.27;;;;;;;;;;5060113;28;20035;-82
2022/11/26 14:24:51;;;;;;;4.03;2.58;;;;;;;;;;5054927;28;20017;-81
2022/11/26 14:27:26;;;;;;;2.58;2.38;;;;;;;;;;5056109;28;20036;-82
2022/11/26 14:29:56;;;;;;;3.22;1.88;;;;;;;;;;5059524;28;20037;-82
2022/11/26 14:32:23;;;;;;;;;;;;;;;;;;5052195;28;20451;-83
2022/11/26 14:34:54;;;;;;;2.42;1.58;;;;;;;;;;5056043;28;20293;-85
2022/11/26 14:37:25;;;;;;;3.42;2.17;;;;;;;;;;5055408;28;20032;-81
2022/11/26 14:40:03;;;;;;;3.22;1.98;;;;;;;;;;5063153;28;20397;-81
2022/11/26 14:42:29;;;;;;;2.47;1.58;;;;;;;;;;5059338;28;20059;-82
2022/11/26 14:45:04;;;;;;;3.05;1.92;;;;;;;;;;5052985;28;20029;-84
2022/11/26 14:47:31;;;;;;;1.55;1.15;;;;;;;;;;5055162;28;20464;-80
2022/11/26 14:50:00;;;;;;;1.75;1.63;;;;;;;;;;5052929;28;20091;-83
2022/11/26 14:52:37;;;;;;;2.20;2.00;;;;;;;;;;5061000;28;20277;-83
2022/11/26 14:55:26;;;;;;;4.00;2.40;;;;;;;;;;5057689;28;20068;-83
2022/11/26 14:58:00;;;;;;;3.28;1.80;;;;;;;;;;5054310;28;20036;-83
2022/11/26 15:00:29;;;;;;;1.30;1.20;;;;;;;;;;5062519;28;20048;-83
2022/11/26 15:02:55;;;;;;;1.85;0.93;;;;;;;;;;5060411;28;20025;-80
2022/11/26 15:05:23;;;;;;;1.65;0.90;;;;;;;;;;5065400;28;20339;-80